Smock, PA (15480)

4:42 PM EDT on June 30, 2015 (GMT -0400)
Dunbar | | Change Station
CLOSE
Current Station
Personal Weather Station
Location: Dunbar, PA
Elevation: 1056 ft
Nearby Weather Stations
Active Advisory: Severe Thunderstorm Watch

Elev 1056 ft 40.00 °N, 79.69 °W | Updated 2 minutes ago

Partly Cloudy
Partly Cloudy
81.9 °F
Feels Like 85 °F
N
9.8
Wind Variable Wind from SW
Gusts 13.0 mph

Today
High -- | Low -- °F
--% Chance of Precip.
Yesterday
High -- | Low -- °F
Precip. -- in
5:53 AM 8:51 PM
Waxing Gibbous, 98% visible
Pressure 29.81 in
Visibility 10.0 miles
Clouds Scattered Clouds 4200 ft
Scattered Clouds 11000 ft
Heat Index 85 °F
Dew Point 68 °F
Humidity 62%
Rainfall in
Snow Depth Not available.
UV 7 out of 12
Pollen 1.20 out of 12
Air Quality Not available.
Flu Activity Sporadic
METAR KMGW 301953Z 22009KT 10SM SCT042 SCT110 26/15 A2984 RMK AO2 SLP095 T02610150

More Conditions Fewer Conditions

Pressure 29.81 in
Visibility 10.0 miles
Clouds Scattered Clouds 4200 ft
Scattered Clouds 11000 ft
Heat Index 85 °F
Dew Point 68 °F
Humidity 62%
Rainfall in
Snow Depth Not available.
UV 7 out of 12
Pollen 1.20 out of 12
Air Quality Not available.
Flu Activity Sporadic
METAR KMGW 301953Z 22009KT 10SM SCT042 SCT110 26/15 A2984 RMK AO2 SLP095 T02610150

More Conditions Fewer Conditions

10-Day Weather Forecast

×

Almanac

Astronomy

Jun. 30, 2015 Rise Set
Actual Time
Civil Twilight
Nautical Twilight
Astronomical Twilight
Moon
Length of Visible Light
Length of Day
Tomorrow will be .
, % of the Moon is Illuminated

Today's Extremes

State Highs State Lows

Community

WunderPhotos

Upload Photos

1,834,069 photos uploaded!

WunderBlogs® & News

Nearby

Air Quality

  Air Quality AQ Index Pollutant
Not available.

Snow Depth

Station Depth Elevation

Earthquake Activity

City Distance Mag. Time & Date
Minimum magnitude displayed is 2.5.

Coastal Water Temperatures

Place Temperature

Stations

Nearby Weather Stations

Station Location Temp. Windchill Dew Point Humidity Wind Precip. Elev Updated Type
                   
Severe Thunderstorm Watch
Statement as of 4:24 PM EDT on June 30, 2015

Severe Thunderstorm Watch 371 remains in effect until 800 PM EDT

PA
. Pennsylvania counties included are

Allegheny Armstrong Beaver
Butler Clarion Fayette
Forest Greene Indiana
Jefferson Lawrence Mercer
Venango Washington Westmoreland